createdAt,value
2019-03-26T00:06:25.986Z,14.2
2019-03-26T00:11:23.667Z,14.1
2019-03-26T00:16:21.446Z,13.9
2019-03-26T00:21:19.108Z,14.1
2019-03-26T00:26:17.182Z,13.5
2019-03-26T00:31:14.786Z,14
2019-03-26T00:36:12.678Z,13.1
2019-03-26T00:41:09.936Z,13.6
2019-03-26T00:46:07.571Z,13.7
2019-03-26T00:51:05.068Z,13.5
2019-03-26T00:56:02.759Z,13.5
2019-03-26T01:01:00.381Z,13.3
2019-03-26T01:05:56.837Z,13.3
2019-03-26T01:10:54.434Z,13.2
2019-03-26T01:15:52.607Z,12.5
2019-03-26T01:20:50.248Z,12.9
2019-03-26T01:25:47.927Z,13
2019-03-26T01:30:45.576Z,13
2019-03-26T01:35:43.399Z,12.9
2019-03-26T01:40:41.157Z,12.7
2019-03-26T01:45:38.843Z,12.6
2019-03-26T01:50:36.739Z,12.7
2019-03-26T01:55:34.482Z,12.1
2019-03-26T02:00:32.087Z,12.2
2019-03-26T02:05:30.395Z,12.6
2019-03-26T02:10:27.952Z,12
2019-03-26T02:15:25.541Z,11.8
2019-03-26T02:20:23.720Z,12.2
2019-03-26T02:25:21.619Z,12.1
2019-03-26T02:30:19.127Z,11.4
2019-03-26T02:35:18.933Z,11.3
2019-03-26T02:40:14.345Z,11.3
2019-03-26T02:45:12.070Z,11.1
2019-03-26T02:50:09.998Z,11
2019-03-26T02:55:07.892Z,11.4
2019-03-26T03:00:05.245Z,10.8
2019-03-26T03:05:03.103Z,11.3
2019-03-26T03:10:00.828Z,10.6
2019-03-26T03:14:58.915Z,11.1
2019-03-26T03:19:56.138Z,10.5
2019-03-26T03:24:53.761Z,10.5
2019-03-26T03:29:50.932Z,10.4
2019-03-26T03:34:48.459Z,10.3
2019-03-26T03:39:46.130Z,10.3
2019-03-26T03:44:43.838Z,10.1
2019-03-26T03:49:41.345Z,9.7
2019-03-26T03:54:38.867Z,9.8
2019-03-26T03:59:36.414Z,9.8
2019-03-26T04:04:34.145Z,9.8
2019-03-26T04:09:31.942Z,9.7
2019-03-26T04:14:29.488Z,9.6
2019-03-26T04:19:27.162Z,9.6
2019-03-26T04:24:24.878Z,9.5
2019-03-26T04:29:22.408Z,9.5
2019-03-26T04:34:22.565Z,9.5
2019-03-26T04:39:17.893Z,9.4
2019-03-26T04:44:15.479Z,9.4
2019-03-26T04:49:13.262Z,9.3
2019-03-26T04:54:11.403Z,9.9
2019-03-26T04:59:09.495Z,9.9
2019-03-26T05:04:07.246Z,9.2
2019-03-26T05:09:05.345Z,9.1
2019-03-26T05:14:03.013Z,9.2
2019-03-26T05:19:00.701Z,9.2
2019-03-26T05:23:58.224Z,9.1
2019-03-26T05:28:56.074Z,9.7
2019-03-26T05:33:53.470Z,9.1
2019-03-26T05:38:51.146Z,9.1
2019-03-26T05:43:48.705Z,8.9
2019-03-26T05:48:46.505Z,9
2019-03-26T05:53:44.121Z,8.7
2019-03-26T05:58:41.932Z,9.1
2019-03-26T06:03:40.177Z,8.5
2019-03-26T06:08:37.370Z,9
2019-03-26T06:13:35.107Z,8.3
2019-03-26T06:18:32.911Z,9.1
2019-03-26T06:23:30.265Z,9
2019-03-26T06:28:27.798Z,9
2019-03-26T06:33:25.239Z,9.1
2019-03-26T06:38:22.884Z,9.1
2019-03-26T06:43:20.530Z,9.1
2019-03-26T06:48:18.148Z,9.1
2019-03-26T06:53:16.223Z,9.1
2019-03-26T06:58:13.521Z,9.1
2019-03-26T07:03:11.378Z,9.1
2019-03-26T07:08:08.813Z,9.4
2019-03-26T07:13:06.965Z,9.9
2019-03-26T07:18:05.051Z,9.5
2019-03-26T07:23:02.787Z,9.6
2019-03-26T07:28:01.164Z,10.1
2019-03-26T07:32:58.605Z,9.6
2019-03-26T07:37:56.354Z,9.5
2019-03-26T07:42:54.110Z,9.7
2019-03-26T07:47:52.378Z,9.1
2019-03-26T07:52:49.973Z,9.8
2019-03-26T07:57:47.738Z,9.9
2019-03-26T08:02:45.874Z,10
2019-03-26T08:07:57.449Z,10
2019-03-26T08:12:42.142Z,10
2019-03-26T08:17:39.847Z,10.2
2019-03-26T08:22:37.873Z,10.3
2019-03-26T08:27:35.760Z,10.4
2019-03-26T08:32:36.836Z,10.5
2019-03-26T08:37:31.714Z,10.5
2019-03-26T08:42:29.877Z,11.1
2019-03-26T08:47:27.507Z,10.5
2019-03-26T08:52:25.825Z,10.4
2019-03-26T08:57:23.923Z,10.5
2019-03-26T09:02:21.752Z,10.7
2019-03-26T09:07:19.377Z,10.7
2019-03-26T09:12:17.382Z,10.9
2019-03-26T09:17:14.666Z,10.8
2019-03-26T09:22:12.401Z,10.8
2019-03-26T09:27:10.693Z,10.9
2019-03-26T09:32:08.894Z,10.9
2019-03-26T09:37:06.141Z,11.6
2019-03-26T09:42:03.977Z,11.1
2019-03-26T09:47:01.071Z,11
2019-03-26T09:51:59.163Z,11
2019-03-26T09:56:57.494Z,11
2019-03-26T10:01:55.690Z,11.6
2019-03-26T10:06:53.244Z,11
2019-03-26T10:11:51.442Z,11.5
2019-03-26T10:16:49.084Z,11
2019-03-26T10:21:47.316Z,5.9
2019-03-26T10:26:44.799Z,11.6
2019-03-26T10:31:42.987Z,11.1
2019-03-26T10:36:41.652Z,11.1
2019-03-26T10:41:38.015Z,11.7
2019-03-26T10:46:35.645Z,11.2
2019-03-26T10:51:33.483Z,11.3
2019-03-26T10:56:32.589Z,11.2
2019-03-26T11:01:29.632Z,11.3
2019-03-26T11:06:27.493Z,11.3
2019-03-26T11:11:25.453Z,11.3
2019-03-26T11:16:23.667Z,11.4
2019-03-26T11:21:21.563Z,11.4
2019-03-26T11:26:19.714Z,11.4
2019-03-26T11:31:17.492Z,11.7
2019-03-26T11:36:14.876Z,11.3
2019-03-26T11:41:12.388Z,11.8
2019-03-26T11:46:09.717Z,11.8
2019-03-26T11:51:07.956Z,11.6
2019-03-26T11:56:05.661Z,11.3
2019-03-26T12:01:03.290Z,5.9
2019-03-26T12:06:01.067Z,11.3
2019-03-26T12:10:58.843Z,11.3
2019-03-26T12:15:56.477Z,11.3
2019-03-26T12:20:54.197Z,11.3
2019-03-26T12:25:52.190Z,11.4
2019-03-26T12:30:49.933Z,11.9
2019-03-26T12:35:47.720Z,11.4
2019-03-26T12:40:45.622Z,11.9
2019-03-26T12:45:43.488Z,11.9
2019-03-26T12:50:40.966Z,11.3
2019-03-26T12:55:38.839Z,11.9
2019-03-26T13:00:36.786Z,11.8
2019-03-26T13:05:34.422Z,11.2
2019-03-26T13:10:32.648Z,11.2
2019-03-26T13:15:30.205Z,11.1
2019-03-26T13:20:27.914Z,11.1
2019-03-26T13:25:25.697Z,11.1
2019-03-26T13:30:23.401Z,11.1
2019-03-26T13:35:21.227Z,11.2
2019-03-26T13:40:26.884Z,11.2
2019-03-26T13:45:16.881Z,11.3
2019-03-26T13:50:14.809Z,11.4
2019-03-26T13:55:12.731Z,11.5
2019-03-26T14:00:10.316Z,12
2019-03-26T14:05:08.022Z,12.1
2019-03-26T14:10:05.617Z,12.2
2019-03-26T14:15:04.457Z,12.2
2019-03-26T14:20:01.854Z,11.8
2019-03-26T14:24:59.474Z,12.1
2019-03-26T14:29:57.500Z,12.4
2019-03-26T14:34:55.244Z,12.4
2019-03-26T14:39:54.417Z,12.5
2019-03-26T14:44:50.828Z,12.5
2019-03-26T14:49:48.958Z,12.5
2019-03-26T14:54:46.639Z,11.9
2019-03-26T14:59:44.152Z,6.7
2019-03-26T15:04:41.835Z,12.4
2019-03-26T15:09:39.574Z,12.4
2019-03-26T15:14:37.297Z,12.4
2019-03-26T15:19:35.260Z,12.4
2019-03-26T15:24:32.785Z,12.4
2019-03-26T15:29:30.647Z,12.3
2019-03-26T15:34:35.768Z,12.3
2019-03-26T15:39:27.423Z,12.3
2019-03-26T15:44:24.832Z,12.2
2019-03-26T15:49:23.036Z,12.2
2019-03-26T15:54:20.461Z,12.3
2019-03-26T15:59:18.200Z,12.2
2019-03-26T16:04:16.231Z,12.2
2019-03-26T16:09:14.588Z,12.1
2019-03-26T16:14:12.607Z,12.1
2019-03-26T16:19:10.043Z,11.7
2019-03-26T16:24:08.209Z,12.1
2019-03-26T16:29:05.967Z,11.6
2019-03-26T16:34:03.542Z,12.1
2019-03-26T16:39:01.284Z,11.6
2019-03-26T16:43:59.732Z,12.1
2019-03-26T16:48:57.991Z,12.1
2019-03-26T16:53:55.718Z,11.6
2019-03-26T16:58:53.517Z,12.1
2019-03-26T17:03:51.658Z,12.1
2019-03-26T17:08:49.883Z,11.7
2019-03-26T17:13:46.163Z,11.7
2019-03-26T17:18:44.451Z,12
2019-03-26T17:23:41.976Z,11.3
2019-03-26T17:28:39.902Z,11.8
2019-03-26T17:33:37.947Z,11.3
2019-03-26T17:38:36.567Z,11.8
2019-03-26T17:43:34.966Z,11.3
2019-03-26T17:48:34.863Z,11.1
2019-03-26T17:53:34.374Z,11.2
2019-03-26T17:58:32.839Z,11.8
2019-03-26T18:03:30.062Z,11.2
2019-03-26T18:08:28.653Z,11.7
2019-03-26T18:13:26.566Z,11.2
2019-03-26T18:18:25.318Z,11.7
2019-03-26T18:23:23.779Z,11.2
2019-03-26T18:28:21.869Z,5
2019-03-26T18:33:20.135Z,11.6
2019-03-26T18:38:17.791Z,10.6
2019-03-26T18:43:16.337Z,11.1
2019-03-26T18:48:18.099Z,11
2019-03-26T18:53:15.293Z,11
2019-03-26T18:58:13.129Z,11
2019-03-26T19:03:10.927Z,10.9
2019-03-26T19:08:09.406Z,10.8
2019-03-26T19:13:18.325Z,10.8
2019-03-26T19:18:05.326Z,11.3
2019-03-26T19:23:03.597Z,10.7
2019-03-26T19:28:01.989Z,11.2
2019-03-26T19:32:59.743Z,10.3
2019-03-26T19:37:57.521Z,10.5
2019-03-26T19:42:55.695Z,11
2019-03-26T19:47:53.582Z,8.8
2019-03-26T19:52:51.338Z,10.4
2019-03-26T19:57:49.684Z,10.3
2019-03-26T20:02:47.498Z,10.2
2019-03-26T20:07:46.016Z,10
2019-03-26T20:12:44.336Z,10
2019-03-26T20:17:42.422Z,9.4
2019-03-26T20:22:40.688Z,8
2019-03-26T20:27:38.561Z,9.9
2019-03-26T20:32:37.001Z,9.7
2019-03-26T20:37:34.976Z,10.1
2019-03-26T20:42:33.163Z,9.6
2019-03-26T20:47:31.296Z,9.6
2019-03-26T20:52:29.128Z,9.5
2019-03-26T20:57:27.087Z,9.4
2019-03-26T21:02:24.826Z,9.3
2019-03-26T21:07:23.257Z,9.8
2019-03-26T21:12:21.326Z,9.2
2019-03-26T21:17:19.312Z,9.1
2019-03-26T21:22:17.606Z,9
2019-03-26T21:27:15.477Z,8.6
2019-03-26T21:32:13.656Z,9
2019-03-26T21:37:11.244Z,9
2019-03-26T21:42:09.234Z,9
2019-03-26T21:47:07.116Z,9.1
2019-03-26T21:52:05.016Z,9
2019-03-26T21:57:03.001Z,9
2019-03-26T22:02:00.852Z,9
2019-03-26T22:06:58.934Z,9
2019-03-26T22:11:56.875Z,8.9
2019-03-26T22:16:54.551Z,9
2019-03-26T22:21:52.575Z,8.9
2019-03-26T22:26:50.242Z,8.7
2019-03-26T22:31:47.925Z,8.9
2019-03-26T22:36:46.406Z,8.9
2019-03-26T22:41:44.209Z,8.8
2019-03-26T22:46:41.994Z,8.8
2019-03-26T22:51:39.840Z,8.7
2019-03-26T22:56:37.816Z,8.7
2019-03-26T23:01:35.160Z,8.8
2019-03-26T23:06:33.317Z,8.8
2019-03-26T23:11:31.363Z,8.8
2019-03-26T23:16:29.057Z,8.6
2019-03-26T23:21:27.279Z,8.6
2019-03-26T23:26:25.391Z,8.6
2019-03-26T23:31:23.387Z,9.2
2019-03-26T23:36:21.292Z,8.6
2019-03-26T23:41:19.372Z,8.6
2019-03-26T23:46:17.110Z,9
2019-03-26T23:51:15.041Z,8.5
2019-03-26T23:56:13.058Z,9
